nws-alerts: Checking more than four warning/county codes can delay the loading of your pages. You should use a cron job to get the data.
EllijayWeather Station Historical Data
Daily Summary for April 29, 2019 Units:  English    Metric   Both
Daily Weekly Monthly Yearly Custom
  High: Low: Average:
Temperature: 80.1 °F 52.3 °F 66.7 °F
Dew Point: 63.1 °F 51.3 °F 57.7 °F
Humidity: 97% 50% 76%
Wind Speed: 4.0mph 0.0mph 0.2mph
Wind Gust: 7.0mph - -
Wind- - ESE
Pressure: 30.22 in 30.10 in -
Precipitation: 0.00 in    
Historical Graphs
 
 
Tabular Data for April 29, 2019
Time Temperature Dew Point Pressure Wind Wind Speed Wind Gust Humidity Rainfall Rate (Hourly) solar
00:04 59.4 °F 57.4 °F 30.11 in Calm     93% 0.00 in meteobridge W/m2
00:09 59.2 °F 57.2 °F 30.11 in Calm     93% 0.00 in meteobridge W/m2
00:14 59.2 °F 57.2 °F 30.11 in Calm     93% 0.00 in meteobridge W/m2
00:19 59.0 °F 57.0 °F 30.10 in Calm     93% 0.00 in meteobridge W/m2
00:24 58.8 °F 56.8 °F 30.10 in Calm     93% 0.00 in meteobridge W/m2
00:29 58.8 °F 56.8 °F 30.11 in Calm     93% 0.00 in meteobridge W/m2
00:34 58.6 °F 56.7 °F 30.11 in Calm     93% 0.00 in meteobridge W/m2
00:39 58.5 °F 56.5 °F 30.11 in Calm     93% 0.00 in meteobridge W/m2
00:44 58.5 °F 56.5 °F 30.11 in Calm     93% 0.00 in meteobridge W/m2
00:49 58.3 °F 56.3 °F 30.11 in Calm     93% 0.00 in meteobridge W/m2
00:54 58.1 °F 56.1 °F 30.12 in Calm     93% 0.00 in meteobridge W/m2
00:59 57.9 °F 56.1 °F 30.12 in Calm     94% 0.00 in meteobridge W/m2
01:04 57.7 °F 55.9 °F 30.12 in Calm     94% 0.00 in meteobridge W/m2
01:09 57.6 °F 55.6 °F 30.12 in Calm     93% 0.00 in meteobridge W/m2
01:14 57.4 °F 55.6 °F 30.12 in Calm     94% 0.00 in meteobridge W/m2
01:19 57.4 °F 55.6 °F 30.12 in Calm     94% 0.00 in meteobridge W/m2
01:24 57.2 °F 55.4 °F 30.12 in Calm     94% 0.00 in meteobridge W/m2
01:29 57.2 °F 55.4 °F 30.12 in Calm     94% 0.00 in meteobridge W/m2
01:34 57.0 °F 55.2 °F 30.12 in Calm     94% 0.00 in meteobridge W/m2
01:39 56.8 °F 55.2 °F 30.13 in Calm     94% 0.00 in meteobridge W/m2
01:44 56.8 °F 55.4 °F 30.12 in Calm     95% 0.00 in meteobridge W/m2
01:49 56.8 °F 55.4 °F 30.12 in Calm     95% 0.00 in meteobridge W/m2
01:54 56.7 °F 55.0 °F 30.12 in Calm     94% 0.00 in meteobridge W/m2
01:59 56.5 °F 54.9 °F 30.12 in Calm     94% 0.00 in meteobridge W/m2
02:04 56.5 °F 54.9 °F 30.12 in Calm     94% 0.00 in meteobridge W/m2
02:09 56.1 °F 54.7 °F 30.12 in Calm     95% 0.00 in meteobridge W/m2
02:14 56.1 °F 54.7 °F 30.12 in Calm     95% 0.00 in meteobridge W/m2
02:19 55.9 °F 54.5 °F 30.12 in Calm     95% 0.00 in meteobridge W/m2
02:24 55.9 °F 54.5 °F 30.13 in Calm     95% 0.00 in meteobridge W/m2
02:29 55.8 °F 54.3 °F 30.12 in Calm     95% 0.00 in meteobridge W/m2
02:34 55.8 °F 54.3 °F 30.12 in Calm     95% 0.00 in meteobridge W/m2
02:39 55.8 °F 54.3 °F 30.12 in Calm     95% 0.00 in meteobridge W/m2
02:44 55.6 °F 54.1 °F 30.12 in Calm     95% 0.00 in meteobridge W/m2
02:49 55.6 °F 54.1 °F 30.12 in Calm     95% 0.00 in meteobridge W/m2
02:54 55.2 °F 53.8 °F 30.12 in Calm     95% 0.00 in meteobridge W/m2
02:59 55.2 °F 53.8 °F 30.12 in Calm     95% 0.00 in meteobridge W/m2
03:04 55.0 °F 53.6 °F 30.12 in Calm     95% 0.00 in meteobridge W/m2
03:09 55.0 °F 53.6 °F 30.12 in Calm     95% 0.00 in meteobridge W/m2
03:14 55.0 °F 53.6 °F 30.12 in Calm     95% 0.00 in meteobridge W/m2
03:19 54.9 °F 53.4 °F 30.12 in Calm     95% 0.00 in meteobridge W/m2
03:24 54.7 °F 53.2 °F 30.12 in Calm     95% 0.00 in meteobridge W/m2
03:29 54.7 °F 53.2 °F 30.12 in Calm     95% 0.00 in meteobridge W/m2
03:34 54.3 °F 52.9 °F 30.13 in Calm     95% 0.00 in meteobridge W/m2
03:39 54.3 °F 52.9 °F 30.13 in Calm     95% 0.00 in meteobridge W/m2
03:44 54.1 °F 52.7 °F 30.13 in Calm     95% 0.00 in meteobridge W/m2
03:49 54.1 °F 52.7 °F 30.13 in Calm     95% 0.00 in meteobridge W/m2
03:54 54.0 °F 52.5 °F 30.13 in Calm     95% 0.00 in meteobridge W/m2
03:59 54.0 °F 52.5 °F 30.13 in Calm     95% 0.00 in meteobridge W/m2
04:04 54.0 °F 52.5 °F 30.13 in Calm     95% 0.00 in meteobridge W/m2
04:09 53.8 °F 52.3 °F 30.13 in Calm     95% 0.00 in meteobridge W/m2
04:14 53.6 °F 52.2 °F 30.14 in Calm     95% 0.00 in meteobridge W/m2
04:19 53.6 °F 52.2 °F 30.13 in Calm     95% 0.00 in meteobridge W/m2
04:24 53.4 °F 52.0 °F 30.13 in Calm     95% 0.00 in meteobridge W/m2
04:29 53.4 °F 52.0 °F 30.13 in Calm     95% 0.00 in meteobridge W/m2
04:34 53.2 °F 51.8 °F 30.13 in Calm     95% 0.00 in meteobridge W/m2
04:39 53.2 °F 51.8 °F 30.13 in Calm     95% 0.00 in meteobridge W/m2
04:44 53.2 °F 52.2 °F 30.13 in Calm     96% 0.00 in meteobridge W/m2
04:49 53.1 °F 52.0 °F 30.13 in Calm     96% 0.00 in meteobridge W/m2
04:54 53.1 °F 51.6 °F 30.13 in Calm     95% 0.00 in meteobridge W/m2
04:59 52.9 °F 51.4 °F 30.13 in Calm     95% 0.00 in meteobridge W/m2
05:04 52.9 °F 51.8 °F 30.13 in Calm     96% 0.00 in meteobridge W/m2
05:09 52.9 °F 51.8 °F 30.13 in Calm     96% 0.00 in meteobridge W/m2
05:14 52.9 °F 51.8 °F 30.13 in Calm     96% 0.00 in meteobridge W/m2
05:19 52.9 °F 51.8 °F 30.13 in Calm     96% 0.00 in meteobridge W/m2
05:24 52.9 °F 51.8 °F 30.13 in Calm     96% 0.00 in meteobridge W/m2
05:29 52.9 °F 51.8 °F 30.13 in Calm     96% 0.00 in meteobridge W/m2
05:34 52.7 °F 51.6 °F 30.14 in Calm     96% 0.00 in meteobridge W/m2
05:39 52.7 °F 51.6 °F 30.14 in Calm     96% 0.00 in meteobridge W/m2
05:44 52.7 °F 51.6 °F 30.13 in Calm     96% 0.00 in meteobridge W/m2
05:49 52.7 °F 51.6 °F 30.14 in Calm     96% 0.00 in meteobridge W/m2
05:54 52.7 °F 51.6 °F 30.14 in Calm     96% 0.00 in meteobridge W/m2
05:59 52.7 °F 51.6 °F 30.14 in Calm     96% 0.00 in meteobridge W/m2
06:04 52.5 °F 51.4 °F 30.14 in Calm     96% 0.00 in meteobridge W/m2
06:09 52.5 °F 51.4 °F 30.14 in Calm     96% 0.00 in meteobridge W/m2
06:14 52.5 °F 51.4 °F 30.14 in Calm     96% 0.00 in meteobridge W/m2
06:19 52.5 °F 51.4 °F 30.14 in Calm     96% 0.00 in meteobridge W/m2
06:24 52.5 °F 51.4 °F 30.14 in Calm     96% 0.00 in meteobridge W/m2
06:29 52.3 °F 51.3 °F 30.14 in Calm     96% 0.00 in meteobridge W/m2
06:34 52.3 °F 51.3 °F 30.15 in Calm     96% 0.00 in meteobridge W/m2
06:39 52.3 °F 51.3 °F 30.15 in Calm     96% 0.00 in meteobridge W/m2
06:44 52.3 °F 51.4 °F 30.15 in Calm     97% 0.00 in meteobridge W/m2
06:49 52.5 °F 51.6 °F 30.16 in Calm     97% 0.00 in meteobridge W/m2
06:54 52.5 °F 51.4 °F 30.16 in Calm     96% 0.00 in meteobridge W/m2
06:59 52.5 °F 51.6 °F 30.16 in Calm     97% 0.00 in meteobridge W/m2
07:04 52.7 °F 51.8 °F 30.16 in Calm     97% 0.00 in meteobridge W/m2
07:09 52.7 °F 51.8 °F 30.17 in Calm     97% 0.00 in meteobridge W/m2
07:14 52.7 °F 51.8 °F 30.17 in Calm     97% 0.00 in meteobridge W/m2
07:19 52.9 °F 52.0 °F 30.17 in Calm     97% 0.00 in meteobridge W/m2
07:24 52.9 °F 52.0 °F 30.18 in Calm     97% 0.00 in meteobridge W/m2
07:29 52.9 °F 51.8 °F 30.17 in Calm     96% 0.00 in meteobridge W/m2
07:34 52.9 °F 52.0 °F 30.18 in Calm     97% 0.00 in meteobridge W/m2
07:39 53.1 °F 52.2 °F 30.18 in Calm     97% 0.00 in meteobridge W/m2
07:44 53.2 °F 52.3 °F 30.18 in Calm     97% 0.00 in meteobridge W/m2
07:49 53.2 °F 52.3 °F 30.18 in Calm     97% 0.00 in meteobridge W/m2
07:54 53.4 °F 52.5 °F 30.19 in Calm     97% 0.00 in meteobridge W/m2
07:59 53.6 °F 52.7 °F 30.19 in Calm     97% 0.00 in meteobridge W/m2
08:04 53.8 °F 52.9 °F 30.19 in Calm     97% 0.00 in meteobridge W/m2
08:09 54.0 °F 53.1 °F 30.19 in Calm     97% 0.00 in meteobridge W/m2
08:14 54.1 °F 53.2 °F 30.19 in Calm     97% 0.00 in meteobridge W/m2
08:19 54.3 °F 53.4 °F 30.19 in Calm     97% 0.00 in meteobridge W/m2
08:24 54.7 °F 53.8 °F 30.19 in Calm     97% 0.00 in meteobridge W/m2
08:29 55.0 °F 54.1 °F 30.19 in Calm     97% 0.00 in meteobridge W/m2
08:34 55.6 °F 54.7 °F 30.19 in Calm     97% 0.00 in meteobridge W/m2
08:39 55.9 °F 55.0 °F 30.19 in Calm     97% 0.00 in meteobridge W/m2
08:44 56.5 °F 55.6 °F 30.19 in Calm     97% 0.00 in meteobridge W/m2
08:49 56.8 °F 55.9 °F 30.20 in Calm     97% 0.00 in meteobridge W/m2
08:54 57.4 °F 56.5 °F 30.20 in Calm     97% 0.00 in meteobridge W/m2
08:59 57.9 °F 57.0 °F 30.20 in Calm     97% 0.00 in meteobridge W/m2
09:04 58.6 °F 57.6 °F 30.20 in Calm     96% 0.00 in meteobridge W/m2
09:09 59.7 °F 56.5 °F 30.20 in Calm   4.0 mph 89% 0.00 in meteobridge W/m2
09:14 61.3 °F 55.8 °F 30.20 in Calm   5.0 mph 82% 0.00 in meteobridge W/m2
09:19 63.0 °F 55.9 °F 30.20 in SE 0.9 mph 2.0 mph 78% 0.00 in meteobridge W/m2
09:24 64.4 °F 55.2 °F 30.20 in SE 2.0 mph 2.0 mph 72% 0.00 in meteobridge W/m2
09:29 65.1 °F 55.4 °F 30.20 in Calm   1.0 mph 71% 0.00 in meteobridge W/m2
09:34 65.7 °F 55.6 °F 30.20 in East 2.0 mph 3.0 mph 70% 0.00 in meteobridge W/m2
09:39 65.8 °F 55.0 °F 30.20 in Calm   4.0 mph 68% 0.00 in meteobridge W/m2
09:44 66.0 °F 55.2 °F 30.20 in ESE 0.9 mph 1.0 mph 68% 0.00 in meteobridge W/m2
09:49 66.4 °F 55.9 °F 30.20 in Calm   1.0 mph 69% 0.00 in meteobridge W/m2
09:54 66.6 °F 55.6 °F 30.20 in Calm   5.0 mph 68% 0.00 in meteobridge W/m2
09:59 66.7 °F 55.4 °F 30.20 in Calm   4.0 mph 67% 0.00 in meteobridge W/m2
10:04 66.9 °F 56.5 °F 30.20 in Calm   4.0 mph 69% 0.00 in meteobridge W/m2
10:09 67.3 °F 55.9 °F 30.20 in Calm   4.0 mph 67% 0.00 in meteobridge W/m2
10:14 67.6 °F 56.3 °F 30.20 in SE 0.9 mph 1.0 mph 67% 0.00 in meteobridge W/m2
10:19 67.8 °F 56.1 °F 30.20 in East 2.0 mph 6.0 mph 66% 0.00 in meteobridge W/m2
10:24 68.0 °F 56.3 °F 30.20 in East 4.0 mph 5.0 mph 66% 0.00 in meteobridge W/m2
10:29 68.2 °F 56.3 °F 30.20 in East 4.0 mph 6.0 mph 66% 0.00 in meteobridge W/m2
10:34 68.5 °F 56.3 °F 30.21 in Calm   7.0 mph 65% 0.00 in meteobridge W/m2
10:39 68.7 °F 56.8 °F 30.21 in ESE 0.9 mph 4.0 mph 66% 0.00 in meteobridge W/m2
10:44 69.4 °F 56.7 °F 30.21 in SE 0.9 mph 5.0 mph 64% 0.00 in meteobridge W/m2
10:49 70.0 °F 57.2 °F 30.21 in Calm   2.0 mph 64% 0.00 in meteobridge W/m2
10:54 70.5 °F 57.7 °F 30.21 in Calm   4.0 mph 64% 0.00 in meteobridge W/m2
10:59 70.9 °F 57.7 °F 30.21 in Calm   1.0 mph 63% 0.00 in meteobridge W/m2
11:04 71.1 °F 57.7 °F 30.21 in Calm   6.0 mph 63% 0.00 in meteobridge W/m2
11:09 71.2 °F 57.9 °F 30.22 in Calm   4.0 mph 63% 0.00 in meteobridge W/m2
11:14 71.4 °F 58.1 °F 30.22 in Calm   2.0 mph 63% 0.00 in meteobridge W/m2
11:19 72.0 °F 58.6 °F 30.22 in Calm   1.0 mph 63% 0.00 in meteobridge W/m2
11:24 72.1 °F 58.8 °F 30.22 in Calm     63% 0.00 in meteobridge W/m2
11:29 72.5 °F 58.8 °F 30.22 in ESE 0.9 mph 2.0 mph 62% 0.00 in meteobridge W/m2
11:34 73.0 °F 59.2 °F 30.22 in Calm   2.0 mph 62% 0.00 in meteobridge W/m2
11:39 73.4 °F 59.5 °F 30.22 in Calm   1.0 mph 62% 0.00 in meteobridge W/m2
11:44 73.8 °F 59.0 °F 30.22 in Calm   1.0 mph 60% 0.00 in meteobridge W/m2
11:49 73.9 °F 59.7 °F 30.22 in Calm     61% 0.00 in meteobridge W/m2
11:54 73.9 °F 59.2 °F 30.22 in Calm   2.0 mph 60% 0.00 in meteobridge W/m2
11:59 74.1 °F 59.7 °F 30.22 in Calm     61% 0.00 in meteobridge W/m2
12:04 74.8 °F 60.4 °F 30.22 in Calm     61% 0.00 in meteobridge W/m2
12:09 75.6 °F 61.7 °F 30.21 in Calm   1.0 mph 62% 0.00 in meteobridge W/m2
12:14 76.1 °F 61.2 °F 30.21 in ESE 0.9 mph 1.0 mph 60% 0.00 in meteobridge W/m2
12:19 76.1 °F 60.8 °F 30.21 in ESE 0.9 mph 2.0 mph 59% 0.00 in meteobridge W/m2
12:24 75.9 °F 60.6 °F 30.20 in Calm   5.0 mph 59% 0.00 in meteobridge W/m2
12:29 75.9 °F 60.1 °F 30.20 in SE 0.9 mph 4.0 mph 58% 0.00 in meteobridge W/m2
12:34 76.3 °F 59.9 °F 30.20 in ESE 4.0 mph 6.0 mph 57% 0.00 in meteobridge W/m2
12:39 76.5 °F 60.1 °F 30.20 in East 4.0 mph 5.0 mph 57% 0.00 in meteobridge W/m2
12:44 76.6 °F 59.7 °F 30.19 in Calm   5.0 mph 56% 0.00 in meteobridge W/m2
12:49 76.8 °F 59.4 °F 30.19 in Calm   4.0 mph 55% 0.00 in meteobridge W/m2
12:54 76.8 °F 57.9 °F 30.19 in ESE 2.0 mph 4.0 mph 52% 0.00 in meteobridge W/m2
12:59 77.2 °F 57.7 °F 30.19 in Calm   2.0 mph 51% 0.00 in meteobridge W/m2
13:04 77.5 °F 58.5 °F 30.19 in ESE 0.9 mph 1.0 mph 52% 0.00 in meteobridge W/m2
13:09 77.7 °F 59.2 °F 30.19 in Calm   2.0 mph 53% 0.00 in meteobridge W/m2
13:14 78.1 °F 59.5 °F 30.19 in Calm     53% 0.00 in meteobridge W/m2
13:19 78.1 °F 59.5 °F 30.19 in Calm   4.0 mph 53% 0.00 in meteobridge W/m2
13:24 77.9 °F 58.8 °F 30.19 in ESE 0.9 mph 4.0 mph 52% 0.00 in meteobridge W/m2
13:29 77.9 °F 58.3 °F 30.19 in Calm     51% 0.00 in meteobridge W/m2
13:34 78.1 °F 59.0 °F 30.19 in ESE 0.9 mph 5.0 mph 52% 0.00 in meteobridge W/m2
13:39 77.9 °F 59.4 °F 30.18 in Calm   1.0 mph 53% 0.00 in meteobridge W/m2
13:44 77.9 °F 59.4 °F 30.18 in SSE 0.9 mph 4.0 mph 53% 0.00 in meteobridge W/m2
13:49 77.9 °F 59.4 °F 30.18 in Calm   2.0 mph 53% 0.00 in meteobridge W/m2
13:54 78.1 °F 57.9 °F 30.18 in South 0.9 mph 1.0 mph 50% 0.00 in meteobridge W/m2
13:59 78.1 °F 58.5 °F 30.18 in Calm   5.0 mph 51% 0.00 in meteobridge W/m2
14:04 78.1 °F 58.5 °F 30.17 in SSE 0.9 mph 1.0 mph 51% 0.00 in meteobridge W/m2
14:09 78.1 °F 59.0 °F 30.17 in ESE 4.0 mph 4.0 mph 52% 0.00 in meteobridge W/m2
14:14 77.7 °F 58.6 °F 30.17 in ESE 4.0 mph 6.0 mph 52% 0.00 in meteobridge W/m2
14:19 77.7 °F 58.6 °F 30.17 in SE 2.0 mph 5.0 mph 52% 0.00 in meteobridge W/m2
14:24 77.7 °F 58.6 °F 30.17 in East 0.9 mph 5.0 mph 52% 0.00 in meteobridge W/m2
14:29 77.9 °F 58.8 °F 30.17 in Calm     52% 0.00 in meteobridge W/m2
14:34 78.1 °F 59.5 °F 30.17 in Calm   3.0 mph 53% 0.00 in meteobridge W/m2
14:39 78.3 °F 59.7 °F 30.18 in Calm     53% 0.00 in meteobridge W/m2
14:44 78.3 °F 59.7 °F 30.18 in Calm   1.0 mph 53% 0.00 in meteobridge W/m2
14:49 78.3 °F 59.7 °F 30.18 in Calm   2.0 mph 53% 0.00 in meteobridge W/m2
14:54 78.4 °F 60.4 °F 30.18 in Calm   2.0 mph 54% 0.00 in meteobridge W/m2
14:59 78.4 °F 59.9 °F 30.18 in Calm   1.0 mph 53% 0.00 in meteobridge W/m2
15:04 78.4 °F 59.9 °F 30.18 in Calm   4.0 mph 53% 0.00 in meteobridge W/m2
15:09 78.6 °F 59.5 °F 30.18 in Calm     52% 0.00 in meteobridge W/m2
15:14 78.8 °F 60.3 °F 30.18 in NNW 0.9 mph 1.0 mph 53% 0.00 in meteobridge W/m2
15:19 79.0 °F 60.4 °F 30.18 in Calm   1.0 mph 53% 0.00 in meteobridge W/m2
15:24 79.0 °F 61.0 °F 30.18 in Calm   1.0 mph 54% 0.00 in meteobridge W/m2
15:29 79.2 °F 60.6 °F 30.18 in Calm   3.0 mph 53% 0.00 in meteobridge W/m2
15:34 79.3 °F 61.2 °F 30.17 in Calm   1.0 mph 54% 0.00 in meteobridge W/m2
15:39 79.2 °F 60.6 °F 30.17 in Calm     53% 0.00 in meteobridge W/m2
15:44 79.0 °F 61.0 °F 30.17 in Calm     54% 0.00 in meteobridge W/m2
15:49 79.0 °F 61.0 °F 30.17 in Calm   2.0 mph 54% 0.00 in meteobridge W/m2
15:54 79.3 °F 61.7 °F 30.16 in SE 0.9 mph 2.0 mph 55% 0.00 in meteobridge W/m2
15:59 79.5 °F 61.3 °F 30.16 in SE 0.9 mph 4.0 mph 54% 0.00 in meteobridge W/m2
16:04 79.5 °F 60.8 °F 30.16 in Calm   1.0 mph 53% 0.00 in meteobridge W/m2
16:09 79.5 °F 60.4 °F 30.16 in Calm   6.0 mph 52% 0.00 in meteobridge W/m2
16:14 79.7 °F 61.0 °F 30.16 in Calm   1.0 mph 53% 0.00 in meteobridge W/m2
16:19 79.5 °F 59.7 °F 30.16 in Calm   2.0 mph 51% 0.00 in meteobridge W/m2
16:24 79.9 °F 61.2 °F 30.16 in ESE 2.0 mph 2.0 mph 53% 0.00 in meteobridge W/m2
16:29 80.1 °F 60.8 °F 30.16 in Calm   1.0 mph 52% 0.00 in meteobridge W/m2
16:34 80.1 °F 60.3 °F 30.16 in Calm   4.0 mph 51% 0.00 in meteobridge W/m2
16:39 80.1 °F 61.3 °F 30.16 in NE 0.9 mph 3.0 mph 53% 0.00 in meteobridge W/m2
16:44 80.1 °F 60.8 °F 30.16 in East 0.9 mph 2.0 mph 52% 0.00 in meteobridge W/m2
16:49 79.9 °F 60.6 °F 30.16 in Calm   4.0 mph 52% 0.00 in meteobridge W/m2
16:54 79.5 °F 60.8 °F 30.16 in Calm   1.0 mph 53% 0.00 in meteobridge W/m2
16:59 79.5 °F 60.4 °F 30.15 in Calm   2.0 mph 52% 0.00 in meteobridge W/m2
17:04 79.7 °F 61.0 °F 30.15 in ESE 2.0 mph 5.0 mph 53% 0.00 in meteobridge W/m2
17:09 79.7 °F 61.0 °F 30.16 in East 2.0 mph 5.0 mph 53% 0.00 in meteobridge W/m2
17:14 79.5 °F 60.4 °F 30.16 in ESE 0.9 mph 5.0 mph 52% 0.00 in meteobridge W/m2
17:19 79.3 °F 60.8 °F 30.16 in Calm   2.0 mph 53% 0.00 in meteobridge W/m2
17:24 79.2 °F 60.6 °F 30.16 in ESE 0.9 mph 1.0 mph 53% 0.00 in meteobridge W/m2
17:29 79.2 °F 61.2 °F 30.16 in Calm   1.0 mph 54% 0.00 in meteobridge W/m2
17:34 79.0 °F 61.0 °F 30.16 in Calm   2.0 mph 54% 0.00 in meteobridge W/m2
17:39 79.0 °F 61.0 °F 30.16 in Calm   1.0 mph 54% 0.00 in meteobridge W/m2
17:44 79.2 °F 61.2 °F 30.16 in Calm     54% 0.00 in meteobridge W/m2
17:49 79.2 °F 61.2 °F 30.16 in Calm   4.0 mph 54% 0.00 in meteobridge W/m2
17:54 79.2 °F 61.2 °F 30.16 in ESE 0.9 mph 5.0 mph 54% 0.00 in meteobridge W/m2
17:59 79.2 °F 60.6 °F 30.16 in Calm   2.0 mph 53% 0.00 in meteobridge W/m2
18:04 79.2 °F 61.2 °F 30.16 in Calm   2.0 mph 54% 0.00 in meteobridge W/m2
18:09 79.0 °F 61.0 °F 30.16 in Calm     54% 0.00 in meteobridge W/m2
18:14 78.6 °F 61.2 °F 30.16 in Calm   1.0 mph 55% 0.00 in meteobridge W/m2
18:19 78.6 °F 61.5 °F 30.16 in ESE 0.9 mph 1.0 mph 56% 0.00 in meteobridge W/m2
18:24 78.4 °F 61.5 °F 30.16 in Calm     56% 0.00 in meteobridge W/m2
18:29 78.4 °F 61.5 °F 30.16 in Calm     56% 0.00 in meteobridge W/m2
18:34 78.4 °F 61.5 °F 30.16 in Calm   1.0 mph 56% 0.00 in meteobridge W/m2
18:39 78.4 °F 61.5 °F 30.16 in Calm   4.0 mph 56% 0.00 in meteobridge W/m2
18:44 78.4 °F 61.9 °F 30.16 in Calm     57% 0.00 in meteobridge W/m2
18:49 78.6 °F 61.5 °F 30.16 in Calm   2.0 mph 56% 0.00 in meteobridge W/m2
18:54 78.6 °F 62.1 °F 30.16 in ESE 2.0 mph 2.0 mph 57% 0.00 in meteobridge W/m2
18:59 78.4 °F 62.4 °F 30.16 in Calm     58% 0.00 in meteobridge W/m2
19:04 78.4 °F 63.0 °F 30.16 in Calm   2.0 mph 59% 0.00 in meteobridge W/m2
19:09 78.1 °F 63.1 °F 30.16 in ESE 0.9 mph 1.0 mph 60% 0.00 in meteobridge W/m2
19:14 77.7 °F 62.8 °F 30.16 in Calm   2.0 mph 60% 0.00 in meteobridge W/m2
19:19 77.5 °F 62.6 °F 30.16 in Calm     60% 0.00 in meteobridge W/m2
19:24 77.4 °F 62.8 °F 30.16 in Calm   1.0 mph 61% 0.00 in meteobridge W/m2
19:29 77.0 °F 62.6 °F 30.16 in Calm     61% 0.00 in meteobridge W/m2
19:34 76.6 °F 62.6 °F 30.16 in Calm   2.0 mph 62% 0.00 in meteobridge W/m2
19:39 76.5 °F 62.4 °F 30.15 in Calm   1.0 mph 62% 0.00 in meteobridge W/m2
19:44 76.3 °F 62.8 °F 30.15 in SE 0.9 mph 4.0 mph 63% 0.00 in meteobridge W/m2
19:49 75.9 °F 62.4 °F 30.16 in Calm   4.0 mph 63% 0.00 in meteobridge W/m2
19:54 75.7 °F 62.8 °F 30.16 in Calm   1.0 mph 64% 0.00 in meteobridge W/m2
19:59 75.6 °F 63.0 °F 30.16 in Calm   5.0 mph 65% 0.00 in meteobridge W/m2
20:04 75.4 °F 62.8 °F 30.16 in East 4.0 mph 4.0 mph 65% 0.00 in meteobridge W/m2
20:09 75.0 °F 63.0 °F 30.16 in Calm   1.0 mph 66% 0.00 in meteobridge W/m2
20:14 74.8 °F 62.8 °F 30.16 in Calm   2.0 mph 66% 0.00 in meteobridge W/m2
20:19 74.7 °F 63.0 °F 30.16 in Calm     67% 0.00 in meteobridge W/m2
20:24 74.1 °F 63.0 °F 30.16 in Calm     68% 0.00 in meteobridge W/m2
20:29 73.9 °F 63.1 °F 30.17 in Calm   1.0 mph 69% 0.00 in meteobridge W/m2
20:34 73.6 °F 62.8 °F 30.16 in Calm   1.0 mph 69% 0.00 in meteobridge W/m2
20:39 73.4 °F 62.6 °F 30.16 in Calm     69% 0.00 in meteobridge W/m2
20:44 73.2 °F 62.8 °F 30.16 in Calm     70% 0.00 in meteobridge W/m2
20:49 73.0 °F 62.6 °F 30.17 in Calm     70% 0.00 in meteobridge W/m2
20:54 72.9 °F 63.0 °F 30.17 in Calm     71% 0.00 in meteobridge W/m2
20:59 72.7 °F 62.8 °F 30.17 in Calm     71% 0.00 in meteobridge W/m2
21:04 72.3 °F 62.8 °F 30.17 in East 0.9 mph 1.0 mph 72% 0.00 in meteobridge W/m2
21:09 72.1 °F 62.6 °F 30.17 in Calm     72% 0.00 in meteobridge W/m2
21:14 72.0 °F 62.8 °F 30.18 in Calm     73% 0.00 in meteobridge W/m2
21:19 71.8 °F 62.6 °F 30.18 in Calm     73% 0.00 in meteobridge W/m2
21:24 71.8 °F 62.6 °F 30.18 in Calm     73% 0.00 in meteobridge W/m2
21:29 71.4 °F 62.2 °F 30.18 in Calm     73% 0.00 in meteobridge W/m2
21:34 71.2 °F 62.6 °F 30.18 in Calm     74% 0.00 in meteobridge W/m2
21:39 70.9 °F 62.6 °F 30.19 in Calm     75% 0.00 in meteobridge W/m2
21:44 70.3 °F 62.4 °F 30.19 in Calm     76% 0.00 in meteobridge W/m2
21:49 69.6 °F 62.1 °F 30.19 in Calm     77% 0.00 in meteobridge W/m2
21:54 69.4 °F 62.2 °F 30.19 in Calm     78% 0.00 in meteobridge W/m2
21:59 69.1 °F 62.2 °F 30.20 in Calm     79% 0.00 in meteobridge W/m2
22:04 68.5 °F 62.1 °F 30.20 in Calm     80% 0.00 in meteobridge W/m2
22:09 68.4 °F 61.9 °F 30.20 in Calm     80% 0.00 in meteobridge W/m2
22:14 68.2 °F 62.1 °F 30.21 in Calm     81% 0.00 in meteobridge W/m2
22:19 67.8 °F 61.7 °F 30.21 in Calm     81% 0.00 in meteobridge W/m2
22:24 67.6 °F 61.5 °F 30.21 in Calm     81% 0.00 in meteobridge W/m2
22:29 67.5 °F 61.7 °F 30.21 in Calm     82% 0.00 in meteobridge W/m2
22:34 67.1 °F 61.3 °F 30.21 in Calm     82% 0.00 in meteobridge W/m2
22:39 66.7 °F 61.3 °F 30.21 in Calm     83% 0.00 in meteobridge W/m2
22:44 66.6 °F 61.5 °F 30.22 in Calm     84% 0.00 in meteobridge W/m2
22:49 66.4 °F 61.3 °F 30.22 in Calm     84% 0.00 in meteobridge W/m2
22:54 66.0 °F 61.3 °F 30.22 in Calm     85% 0.00 in meteobridge W/m2
22:59 65.8 °F 61.2 °F 30.22 in Calm     85% 0.00 in meteobridge W/m2
23:04 65.7 °F 61.0 °F 30.22 in Calm     85% 0.00 in meteobridge W/m2
23:09 65.5 °F 61.2 °F 30.22 in Calm     86% 0.00 in meteobridge W/m2
23:14 65.1 °F 60.8 °F 30.22 in Calm     86% 0.00 in meteobridge W/m2
23:19 65.1 °F 60.8 °F 30.22 in Calm     86% 0.00 in meteobridge W/m2
23:24 64.9 °F 61.0 °F 30.22 in Calm     87% 0.00 in meteobridge W/m2
23:29 64.8 °F 60.8 °F 30.22 in Calm     87% 0.00 in meteobridge W/m2
23:34 64.6 °F 60.6 °F 30.22 in Calm     87% 0.00 in meteobridge W/m2
23:39 64.6 °F 60.6 °F 30.22 in Calm     87% 0.00 in meteobridge W/m2
23:44 64.2 °F 60.6 °F 30.22 in Calm     88% 0.00 in meteobridge W/m2
23:49 64.2 °F 60.6 °F 30.22 in Calm     88% 0.00 in meteobridge W/m2
23:54 64.0 °F 60.4 °F 30.22 in Calm     88% 0.00 in meteobridge W/m2
23:59 63.9 °F 60.6 °F 30.22 in Calm     89% 0.00 in meteobridge W/m2
EllijayWeather
Compliments of Weather Underground - 2.5 mb